3TS3 weather

J-D Ranch Airport
Alvin, Texas, United States

Public forecast

Using degrees Fahrenheit for public forecast. Weather courtesy of forecast.io.

METAR (pilot weather report)

Closest report is Pearland Regional Airport, 9.2 nm (17.0 km) NNE. Retrieved 2019/07/21 00:53 UTC (44 minutes ago):

KLVJ 210053Z AUTO 16010KT 10SM CLR 31/24 A2995 RMK AO2 SLP141 T03060239

TAF (pilot weather forecast)

Closest forecast is Ellington Airport, 15.6 nm (28.8 km) NNE. Retrieved 2019/07/20 20:20 UTC (5 hours ago):

TAF KEFD 202000Z 2020/2202 16012KT 9999 BKN030 QNH2991INS BECMG 2100/2101 17006KT 9999 SCT030 QNH2992INS BECMG 2105/2106 17006KT 9999 BKN015 QNH2993INS BECMG 2114/2115 16009KT 9999 BKN030 QNH2995INS BECMG 2121/2122 16009KT 9999 SCT040 QNH2995INS TX35/2118Z TN25/2111Z